sensor_id;sensor_type;location;lat;lon;timestamp;P1;durP1;ratioP1;P2;durP2;ratioP2
38843;SDS011;24596;48.080;8.362;2022-08-23T00:01:51;8.43;;;5.03;;
38843;SDS011;24596;48.080;8.362;2022-08-23T00:04:18;11.05;;;6.53;;
38843;SDS011;24596;48.080;8.362;2022-08-23T00:06:44;14.65;;;7.93;;
38843;SDS011;24596;48.080;8.362;2022-08-23T00:09:11;10.98;;;6.55;;
38843;SDS011;24596;48.080;8.362;2022-08-23T00:11:39;11.07;;;5.80;;
38843;SDS011;24596;48.080;8.362;2022-08-23T00:14:10;9.55;;;5.85;;
38843;SDS011;24596;48.080;8.362;2022-08-23T00:16:35;9.30;;;5.15;;
38843;SDS011;24596;48.080;8.362;2022-08-23T00:19:02;8.38;;;5.13;;
38843;SDS011;24596;48.080;8.362;2022-08-23T00:21:28;9.15;;;5.82;;
38843;SDS011;24596;48.080;8.362;2022-08-23T00:23:54;10.05;;;5.05;;
38843;SDS011;24596;48.080;8.362;2022-08-23T00:26:20;9.98;;;5.88;;
38843;SDS011;24596;48.080;8.362;2022-08-23T00:28:51;9.20;;;5.38;;
38843;SDS011;24596;48.080;8.362;2022-08-23T00:31:17;10.32;;;5.95;;
38843;SDS011;24596;48.080;8.362;2022-08-23T00:33:42;11.45;;;6.50;;
38843;SDS011;24596;48.080;8.362;2022-08-23T00:36:07;8.27;;;5.22;;
38843;SDS011;24596;48.080;8.362;2022-08-23T00:38:33;10.10;;;5.05;;
38843;SDS011;24596;48.080;8.362;2022-08-23T00:40:58;10.48;;;5.60;;
38843;SDS011;24596;48.080;8.362;2022-08-23T00:43:27;9.27;;;5.55;;
38843;SDS011;24596;48.080;8.362;2022-08-23T00:49:06;10.88;;;5.72;;
38843;SDS011;24596;48.080;8.362;2022-08-23T00:51:37;12.70;;;5.53;;
38843;SDS011;24596;48.080;8.362;2022-08-23T00:54:05;10.00;;;5.55;;
38843;SDS011;24596;48.080;8.362;2022-08-23T00:56:32;9.13;;;5.55;;
38843;SDS011;24596;48.080;8.362;2022-08-23T00:58:58;10.93;;;6.20;;
38843;SDS011;24596;48.080;8.362;2022-08-23T01:01:23;10.07;;;6.18;;
38843;SDS011;24596;48.080;8.362;2022-08-23T01:03:50;9.05;;;5.78;;
38843;SDS011;24596;48.080;8.362;2022-08-23T01:06:18;8.07;;;5.47;;
38843;SDS011;24596;48.080;8.362;2022-08-23T01:08:46;8.07;;;5.57;;
38843;SDS011;24596;48.080;8.362;2022-08-23T01:11:13;9.32;;;5.45;;
38843;SDS011;24596;48.080;8.362;2022-08-23T01:13:50;10.07;;;5.72;;
38843;SDS011;24596;48.080;8.362;2022-08-23T01:16:20;9.77;;;5.88;;
38843;SDS011;24596;48.080;8.362;2022-08-23T01:18:48;10.02;;;5.47;;
38843;SDS011;24596;48.080;8.362;2022-08-23T01:21:15;11.32;;;6.10;;
38843;SDS011;24596;48.080;8.362;2022-08-23T01:23:42;15.25;;;6.60;;
38843;SDS011;24596;48.080;8.362;2022-08-23T01:26:08;14.80;;;6.82;;
38843;SDS011;24596;48.080;8.362;2022-08-23T01:28:35;10.75;;;6.03;;
38843;SDS011;24596;48.080;8.362;2022-08-23T01:31:00;9.40;;;6.03;;
38843;SDS011;24596;48.080;8.362;2022-08-23T01:33:26;9.57;;;5.40;;
38843;SDS011;24596;48.080;8.362;2022-08-23T01:35:52;8.80;;;5.43;;
38843;SDS011;24596;48.080;8.362;2022-08-23T01:38:18;8.77;;;5.63;;
38843;SDS011;24596;48.080;8.362;2022-08-23T01:40:44;9.38;;;5.70;;
38843;SDS011;24596;48.080;8.362;2022-08-23T01:43:09;9.20;;;6.20;;
38843;SDS011;24596;48.080;8.362;2022-08-23T01:45:36;10.32;;;5.93;;
38843;SDS011;24596;48.080;8.362;2022-08-23T01:48:02;12.30;;;5.53;;
38843;SDS011;24596;48.080;8.362;2022-08-23T01:50:28;10.93;;;6.50;;
38843;SDS011;24596;48.080;8.362;2022-08-23T01:52:53;8.85;;;5.85;;
38843;SDS011;24596;48.080;8.362;2022-08-23T01:55:19;8.90;;;5.35;;
38843;SDS011;24596;48.080;8.362;2022-08-23T01:57:45;12.27;;;6.07;;
38843;SDS011;24596;48.080;8.362;2022-08-23T02:00:11;11.45;;;5.80;;
38843;SDS011;24596;48.080;8.362;2022-08-23T02:02:36;11.05;;;5.50;;
38843;SDS011;24596;48.080;8.362;2022-08-23T02:05:03;10.02;;;5.75;;
38843;SDS011;24596;48.080;8.362;2022-08-23T02:07:28;10.82;;;5.43;;
38843;SDS011;24596;48.080;8.362;2022-08-23T02:09:54;8.43;;;5.78;;
38843;SDS011;24596;48.080;8.362;2022-08-23T02:12:20;9.98;;;5.63;;
38843;SDS011;24596;48.080;8.362;2022-08-23T02:14:45;9.07;;;5.15;;
38843;SDS011;24596;48.080;8.362;2022-08-23T02:17:10;9.68;;;5.28;;
38843;SDS011;24596;48.080;8.362;2022-08-23T02:19:37;8.23;;;5.22;;
38843;SDS011;24596;48.080;8.362;2022-08-23T02:22:03;11.80;;;5.05;;
38843;SDS011;24596;48.080;8.362;2022-08-23T02:24:29;11.25;;;5.72;;
38843;SDS011;24596;48.080;8.362;2022-08-23T02:26:56;12.48;;;5.30;;
38843;SDS011;24596;48.080;8.362;2022-08-23T02:29:22;8.60;;;5.45;;
38843;SDS011;24596;48.080;8.362;2022-08-23T02:31:48;8.85;;;4.97;;
38843;SDS011;24596;48.080;8.362;2022-08-23T02:34:14;8.77;;;5.13;;
38843;SDS011;24596;48.080;8.362;2022-08-23T02:36:39;10.60;;;5.50;;
38843;SDS011;24596;48.080;8.362;2022-08-23T02:39:05;9.45;;;4.80;;
38843;SDS011;24596;48.080;8.362;2022-08-23T02:41:30;8.15;;;5.10;;
38843;SDS011;24596;48.080;8.362;2022-08-23T02:43:56;11.23;;;5.70;;
38843;SDS011;24596;48.080;8.362;2022-08-23T02:46:21;9.90;;;5.85;;
38843;SDS011;24596;48.080;8.362;2022-08-23T02:48:47;9.55;;;5.32;;
38843;SDS011;24596;48.080;8.362;2022-08-23T02:51:12;8.65;;;5.13;;
38843;SDS011;24596;48.080;8.362;2022-08-23T02:53:38;10.70;;;5.22;;
38843;SDS011;24596;48.080;8.362;2022-08-23T02:56:03;10.60;;;5.22;;
38843;SDS011;24596;48.080;8.362;2022-08-23T02:58:28;11.10;;;4.95;;
38843;SDS011;24596;48.080;8.362;2022-08-23T03:00:54;9.77;;;5.53;;
38843;SDS011;24596;48.080;8.362;2022-08-23T03:03:19;9.60;;;5.22;;
38843;SDS011;24596;48.080;8.362;2022-08-23T03:05:45;11.88;;;5.53;;
38843;SDS011;24596;48.080;8.362;2022-08-23T03:08:10;9.10;;;5.05;;
38843;SDS011;24596;48.080;8.362;2022-08-23T03:10:36;11.40;;;5.07;;
38843;SDS011;24596;48.080;8.362;2022-08-23T03:13:02;7.97;;;5.45;;
38843;SDS011;24596;48.080;8.362;2022-08-23T03:15:27;8.68;;;5.20;;
38843;SDS011;24596;48.080;8.362;2022-08-23T03:17:53;9.40;;;5.30;;
38843;SDS011;24596;48.080;8.362;2022-08-23T03:20:18;8.88;;;5.45;;
38843;SDS011;24596;48.080;8.362;2022-08-23T03:22:43;7.93;;;5.13;;
38843;SDS011;24596;48.080;8.362;2022-08-23T03:25:09;9.25;;;5.13;;
38843;SDS011;24596;48.080;8.362;2022-08-23T03:27:34;10.00;;;5.68;;
38843;SDS011;24596;48.080;8.362;2022-08-23T03:29:59;7.82;;;4.68;;
38843;SDS011;24596;48.080;8.362;2022-08-23T03:32:24;9.38;;;5.30;;
38843;SDS011;24596;48.080;8.362;2022-08-23T03:34:50;9.20;;;5.00;;
38843;SDS011;24596;48.080;8.362;2022-08-23T03:37:15;10.75;;;4.65;;
38843;SDS011;24596;48.080;8.362;2022-08-23T03:39:40;7.78;;;5.32;;
38843;SDS011;24596;48.080;8.362;2022-08-23T03:42:05;10.13;;;5.32;;
38843;SDS011;24596;48.080;8.362;2022-08-23T03:44:31;12.93;;;5.60;;
38843;SDS011;24596;48.080;8.362;2022-08-23T03:46:57;8.82;;;5.15;;
38843;SDS011;24596;48.080;8.362;2022-08-23T03:49:22;10.13;;;5.68;;
38843;SDS011;24596;48.080;8.362;2022-08-23T03:51:47;8.35;;;4.90;;
38843;SDS011;24596;48.080;8.362;2022-08-23T03:54:12;7.80;;;4.90;;
38843;SDS011;24596;48.080;8.362;2022-08-23T03:56:48;12.32;;;5.70;;
38843;SDS011;24596;48.080;8.362;2022-08-23T03:59:13;10.20;;;5.50;;
38843;SDS011;24596;48.080;8.362;2022-08-23T04:01:38;9.13;;;5.78;;
38843;SDS011;24596;48.080;8.362;2022-08-23T04:04:04;13.25;;;5.47;;
38843;SDS011;24596;48.080;8.362;2022-08-23T04:06:29;10.23;;;5.88;;
38843;SDS011;24596;48.080;8.362;2022-08-23T04:08:55;8.73;;;4.97;;
38843;SDS011;24596;48.080;8.362;2022-08-23T04:11:21;10.05;;;5.70;;
38843;SDS011;24596;48.080;8.362;2022-08-23T04:13:46;10.32;;;5.80;;
38843;SDS011;24596;48.080;8.362;2022-08-23T04:16:12;10.63;;;4.97;;
38843;SDS011;24596;48.080;8.362;2022-08-23T04:18:37;7.78;;;5.18;;
38843;SDS011;24596;48.080;8.362;2022-08-23T04:21:03;8.95;;;5.40;;
38843;SDS011;24596;48.080;8.362;2022-08-23T04:23:30;9.00;;;4.90;;
38843;SDS011;24596;48.080;8.362;2022-08-23T04:25:55;8.70;;;5.55;;
38843;SDS011;24596;48.080;8.362;2022-08-23T04:28:21;11.82;;;4.85;;
38843;SDS011;24596;48.080;8.362;2022-08-23T04:30:46;7.72;;;5.28;;
38843;SDS011;24596;48.080;8.362;2022-08-23T04:33:11;10.40;;;5.47;;
38843;SDS011;24596;48.080;8.362;2022-08-23T04:35:37;8.98;;;5.63;;
38843;SDS011;24596;48.080;8.362;2022-08-23T04:38:03;9.48;;;5.32;;
38843;SDS011;24596;48.080;8.362;2022-08-23T04:40:28;9.63;;;5.50;;
38843;SDS011;24596;48.080;8.362;2022-08-23T04:43:12;11.23;;;4.68;;
38843;SDS011;24596;48.080;8.362;2022-08-23T04:45:37;9.38;;;5.53;;
38843;SDS011;24596;48.080;8.362;2022-08-23T04:48:03;12.15;;;7.10;;
38843;SDS011;24596;48.080;8.362;2022-08-23T04:50:29;10.98;;;6.72;;
38843;SDS011;24596;48.080;8.362;2022-08-23T04:52:54;12.02;;;6.85;;
38843;SDS011;24596;48.080;8.362;2022-08-23T04:55:19;14.73;;;6.88;;
38843;SDS011;24596;48.080;8.362;2022-08-23T04:57:44;13.93;;;7.10;;
38843;SDS011;24596;48.080;8.362;2022-08-23T05:00:10;9.98;;;6.18;;
38843;SDS011;24596;48.080;8.362;2022-08-23T05:02:39;10.50;;;5.70;;
38843;SDS011;24596;48.080;8.362;2022-08-23T05:05:05;10.95;;;5.40;;
38843;SDS011;24596;48.080;8.362;2022-08-23T05:07:30;8.80;;;5.18;;
38843;SDS011;24596;48.080;8.362;2022-08-23T05:09:55;9.43;;;5.78;;
38843;SDS011;24596;48.080;8.362;2022-08-23T05:12:21;10.10;;;5.32;;
38843;SDS011;24596;48.080;8.362;2022-08-23T05:14:46;13.60;;;6.40;;
38843;SDS011;24596;48.080;8.362;2022-08-23T05:17:12;10.77;;;5.50;;
38843;SDS011;24596;48.080;8.362;2022-08-23T05:19:37;14.52;;;5.82;;
38843;SDS011;24596;48.080;8.362;2022-08-23T05:22:02;11.95;;;5.50;;
38843;SDS011;24596;48.080;8.362;2022-08-23T05:24:27;9.75;;;4.88;;
38843;SDS011;24596;48.080;8.362;2022-08-23T05:26:53;10.25;;;4.28;;
38843;SDS011;24596;48.080;8.362;2022-08-23T05:29:18;9.02;;;5.20;;
38843;SDS011;24596;48.080;8.362;2022-08-23T05:31:45;9.85;;;4.82;;
38843;SDS011;24596;48.080;8.362;2022-08-23T05:34:10;9.40;;;5.10;;
38843;SDS011;24596;48.080;8.362;2022-08-23T05:36:35;10.93;;;5.28;;
38843;SDS011;24596;48.080;8.362;2022-08-23T05:39:01;8.18;;;4.63;;
38843;SDS011;24596;48.080;8.362;2022-08-23T05:41:26;8.20;;;4.65;;
38843;SDS011;24596;48.080;8.362;2022-08-23T05:43:52;9.00;;;5.15;;
38843;SDS011;24596;48.080;8.362;2022-08-23T05:46:18;9.32;;;5.03;;
38843;SDS011;24596;48.080;8.362;2022-08-23T05:48:45;11.95;;;4.70;;
38843;SDS011;24596;48.080;8.362;2022-08-23T05:51:15;10.10;;;5.00;;
38843;SDS011;24596;48.080;8.362;2022-08-23T05:53:40;7.88;;;4.70;;
38843;SDS011;24596;48.080;8.362;2022-08-23T05:56:08;11.15;;;4.88;;
38843;SDS011;24596;48.080;8.362;2022-08-23T05:58:33;9.48;;;4.90;;
38843;SDS011;24596;48.080;8.362;2022-08-23T06:00:58;9.80;;;4.97;;
38843;SDS011;24596;48.080;8.362;2022-08-23T06:03:24;8.15;;;5.13;;
38843;SDS011;24596;48.080;8.362;2022-08-23T06:05:55;7.82;;;4.30;;
38843;SDS011;24596;48.080;8.362;2022-08-23T06:08:20;8.77;;;4.53;;
38843;SDS011;24596;48.080;8.362;2022-08-23T06:10:45;8.48;;;4.75;;
38843;SDS011;24596;48.080;8.362;2022-08-23T06:13:10;10.48;;;4.60;;
38843;SDS011;24596;48.080;8.362;2022-08-23T06:15:41;9.57;;;4.68;;
38843;SDS011;24596;48.080;8.362;2022-08-23T06:18:06;7.30;;;4.47;;
38843;SDS011;24596;48.080;8.362;2022-08-23T06:20:31;6.88;;;4.28;;
38843;SDS011;24596;48.080;8.362;2022-08-23T06:22:56;7.72;;;4.30;;
38843;SDS011;24596;48.080;8.362;2022-08-23T06:25:22;7.45;;;4.07;;
38843;SDS011;24596;48.080;8.362;2022-08-23T06:27:47;11.17;;;4.80;;
38843;SDS011;24596;48.080;8.362;2022-08-23T06:30:12;8.80;;;4.78;;
38843;SDS011;24596;48.080;8.362;2022-08-23T06:32:37;7.88;;;4.38;;
38843;SDS011;24596;48.080;8.362;2022-08-23T06:35:03;7.43;;;4.32;;
38843;SDS011;24596;48.080;8.362;2022-08-23T06:37:28;10.13;;;4.07;;
38843;SDS011;24596;48.080;8.362;2022-08-23T06:39:53;7.22;;;4.18;;
38843;SDS011;24596;48.080;8.362;2022-08-23T06:42:21;9.88;;;4.22;;
38843;SDS011;24596;48.080;8.362;2022-08-23T06:44:48;7.03;;;3.70;;
38843;SDS011;24596;48.080;8.362;2022-08-23T06:47:14;7.28;;;3.97;;
38843;SDS011;24596;48.080;8.362;2022-08-23T06:49:40;10.00;;;3.70;;
38843;SDS011;24596;48.080;8.362;2022-08-23T06:52:06;7.80;;;3.80;;
38843;SDS011;24596;48.080;8.362;2022-08-23T06:54:32;6.20;;;3.70;;
38843;SDS011;24596;48.080;8.362;2022-08-23T06:56:59;6.47;;;3.78;;
38843;SDS011;24596;48.080;8.362;2022-08-23T06:59:25;7.10;;;3.90;;
38843;SDS011;24596;48.080;8.362;2022-08-23T07:01:52;7.63;;;3.92;;
38843;SDS011;24596;48.080;8.362;2022-08-23T07:04:19;6.90;;;3.30;;
38843;SDS011;24596;48.080;8.362;2022-08-23T07:06:45;8.15;;;3.63;;
38843;SDS011;24596;48.080;8.362;2022-08-23T07:09:10;7.78;;;3.47;;
38843;SDS011;24596;48.080;8.362;2022-08-23T07:11:37;6.80;;;3.67;;
38843;SDS011;24596;48.080;8.362;2022-08-23T07:14:07;6.20;;;3.33;;
38843;SDS011;24596;48.080;8.362;2022-08-23T07:16:33;5.43;;;3.20;;
38843;SDS011;24596;48.080;8.362;2022-08-23T07:18:58;7.45;;;3.95;;
38843;SDS011;24596;48.080;8.362;2022-08-23T07:21:24;5.57;;;2.80;;
38843;SDS011;24596;48.080;8.362;2022-08-23T07:23:49;7.07;;;2.90;;
38843;SDS011;24596;48.080;8.362;2022-08-23T07:26:14;6.78;;;3.05;;
38843;SDS011;24596;48.080;8.362;2022-08-23T07:28:40;5.80;;;2.33;;
38843;SDS011;24596;48.080;8.362;2022-08-23T07:33:35;5.28;;;2.08;;
38843;SDS011;24596;48.080;8.362;2022-08-23T07:36:00;5.88;;;2.22;;
38843;SDS011;24596;48.080;8.362;2022-08-23T07:38:25;5.78;;;2.05;;
38843;SDS011;24596;48.080;8.362;2022-08-23T07:40:50;5.43;;;2.13;;
38843;SDS011;24596;48.080;8.362;2022-08-23T07:43:16;10.53;;;2.00;;
38843;SDS011;24596;48.080;8.362;2022-08-23T07:45:41;4.55;;;2.13;;
38843;SDS011;24596;48.080;8.362;2022-08-23T07:48:07;5.78;;;2.00;;
38843;SDS011;24596;48.080;8.362;2022-08-23T07:50:32;4.97;;;2.20;;
38843;SDS011;24596;48.080;8.362;2022-08-23T07:52:58;4.30;;;1.70;;
38843;SDS011;24596;48.080;8.362;2022-08-23T07:55:23;6.78;;;2.05;;
38843;SDS011;24596;48.080;8.362;2022-08-23T07:57:49;5.22;;;2.45;;
38843;SDS011;24596;48.080;8.362;2022-08-23T08:00:14;4.85;;;1.98;;
38843;SDS011;24596;48.080;8.362;2022-08-23T08:02:39;7.38;;;1.98;;
38843;SDS011;24596;48.080;8.362;2022-08-23T08:05:05;6.43;;;2.65;;
38843;SDS011;24596;48.080;8.362;2022-08-23T08:07:30;5.65;;;2.00;;
38843;SDS011;24596;48.080;8.362;2022-08-23T08:09:55;5.60;;;2.40;;
38843;SDS011;24596;48.080;8.362;2022-08-23T08:12:21;5.45;;;2.33;;
38843;SDS011;24596;48.080;8.362;2022-08-23T08:14:46;5.80;;;2.42;;
38843;SDS011;24596;48.080;8.362;2022-08-23T08:17:15;5.72;;;2.95;;
38843;SDS011;24596;48.080;8.362;2022-08-23T08:19:42;5.05;;;1.85;;
38843;SDS011;24596;48.080;8.362;2022-08-23T08:22:07;5.93;;;2.58;;
38843;SDS011;24596;48.080;8.362;2022-08-23T08:24:32;5.63;;;2.13;;
38843;SDS011;24596;48.080;8.362;2022-08-23T08:26:57;6.72;;;2.70;;
38843;SDS011;24596;48.080;8.362;2022-08-23T08:29:25;5.55;;;2.15;;
38843;SDS011;24596;48.080;8.362;2022-08-23T08:31:50;5.28;;;2.20;;
38843;SDS011;24596;48.080;8.362;2022-08-23T08:34:16;6.17;;;2.23;;
38843;SDS011;24596;48.080;8.362;2022-08-23T08:36:52;7.30;;;2.78;;
38843;SDS011;24596;48.080;8.362;2022-08-23T08:39:38;6.07;;;2.47;;
38843;SDS011;24596;48.080;8.362;2022-08-23T08:44:59;8.53;;;2.27;;
38843;SDS011;24596;48.080;8.362;2022-08-23T08:50:17;6.30;;;2.50;;
38843;SDS011;24596;48.080;8.362;2022-08-23T08:52:47;6.07;;;2.28;;
38843;SDS011;24596;48.080;8.362;2022-08-23T08:55:25;6.00;;;2.58;;
38843;SDS011;24596;48.080;8.362;2022-08-23T08:57:51;4.90;;;1.98;;
38843;SDS011;24596;48.080;8.362;2022-08-23T09:00:22;8.25;;;2.88;;
38843;SDS011;24596;48.080;8.362;2022-08-23T09:02:47;6.60;;;2.83;;
38843;SDS011;24596;48.080;8.362;2022-08-23T09:05:14;6.43;;;2.70;;
38843;SDS011;24596;48.080;8.362;2022-08-23T09:18:34;6.05;;;2.90;;
38843;SDS011;24596;48.080;8.362;2022-08-23T09:20:59;7.75;;;2.92;;
38843;SDS011;24596;48.080;8.362;2022-08-23T09:23:27;6.55;;;2.80;;
38843;SDS011;24596;48.080;8.362;2022-08-23T09:25:56;5.45;;;2.40;;
38843;SDS011;24596;48.080;8.362;2022-08-23T09:28:24;8.32;;;2.55;;
38843;SDS011;24596;48.080;8.362;2022-08-23T09:30:53;7.18;;;2.78;;
38843;SDS011;24596;48.080;8.362;2022-08-23T09:33:23;6.35;;;2.72;;
38843;SDS011;24596;48.080;8.362;2022-08-23T09:36:04;6.20;;;2.60;;
38843;SDS011;24596;48.080;8.362;2022-08-23T09:38:30;5.60;;;2.60;;
38843;SDS011;24596;48.080;8.362;2022-08-23T09:40:55;4.53;;;2.30;;
38843;SDS011;24596;48.080;8.362;2022-08-23T09:43:22;5.95;;;2.78;;
38843;SDS011;24596;48.080;8.362;2022-08-23T09:48:37;5.32;;;2.42;;
38843;SDS011;24596;48.080;8.362;2022-08-23T09:51:11;6.43;;;2.25;;
38843;SDS011;24596;48.080;8.362;2022-08-23T09:53:41;7.70;;;2.38;;
38843;SDS011;24596;48.080;8.362;2022-08-23T09:56:11;6.88;;;2.63;;
38843;SDS011;24596;48.080;8.362;2022-08-23T09:58:38;6.57;;;2.38;;
38843;SDS011;24596;48.080;8.362;2022-08-23T10:01:24;6.43;;;2.38;;
38843;SDS011;24596;48.080;8.362;2022-08-23T10:06:30;7.87;;;2.53;;
38843;SDS011;24596;48.080;8.362;2022-08-23T10:08:58;6.43;;;2.05;;
38843;SDS011;24596;48.080;8.362;2022-08-23T10:11:29;5.05;;;2.17;;
38843;SDS011;24596;48.080;8.362;2022-08-23T10:13:55;5.35;;;2.05;;
38843;SDS011;24596;48.080;8.362;2022-08-23T10:18:59;5.20;;;2.00;;
38843;SDS011;24596;48.080;8.362;2022-08-23T10:24:15;3.38;;;1.70;;
38843;SDS011;24596;48.080;8.362;2022-08-23T10:26:45;5.80;;;2.30;;
38843;SDS011;24596;48.080;8.362;2022-08-23T10:29:18;5.45;;;1.95;;
38843;SDS011;24596;48.080;8.362;2022-08-23T10:37:45;6.95;;;2.17;;
38843;SDS011;24596;48.080;8.362;2022-08-23T10:43:00;5.72;;;1.95;;
38843;SDS011;24596;48.080;8.362;2022-08-23T10:45:32;4.65;;;1.90;;
38843;SDS011;24596;48.080;8.362;2022-08-23T10:50:44;5.03;;;2.10;;
38843;SDS011;24596;48.080;8.362;2022-08-23T10:53:12;8.32;;;2.25;;
38843;SDS011;24596;48.080;8.362;2022-08-23T10:55:44;4.85;;;1.90;;
38843;SDS011;24596;48.080;8.362;2022-08-23T10:58:42;4.00;;;1.98;;
38843;SDS011;24596;48.080;8.362;2022-08-23T11:01:09;5.32;;;2.05;;
38843;SDS011;24596;48.080;8.362;2022-08-23T11:03:41;6.38;;;2.10;;
38843;SDS011;24596;48.080;8.362;2022-08-23T11:08:58;4.93;;;2.00;;
38843;SDS011;24596;48.080;8.362;2022-08-23T11:11:42;4.95;;;2.40;;
38843;SDS011;24596;48.080;8.362;2022-08-23T11:17:21;5.10;;;2.10;;
38843;SDS011;24596;48.080;8.362;2022-08-23T11:20:00;4.80;;;1.70;;
38843;SDS011;24596;48.080;8.362;2022-08-23T11:22:30;5.63;;;1.98;;
38843;SDS011;24596;48.080;8.362;2022-08-23T11:24:57;6.68;;;2.15;;
38843;SDS011;24596;48.080;8.362;2022-08-23T11:27:44;3.78;;;1.85;;
38843;SDS011;24596;48.080;8.362;2022-08-23T11:32:53;4.43;;;1.80;;
38843;SDS011;24596;48.080;8.362;2022-08-23T11:37:51;4.68;;;1.73;;
38843;SDS011;24596;48.080;8.362;2022-08-23T11:43:12;5.93;;;1.73;;
38843;SDS011;24596;48.080;8.362;2022-08-23T11:45:45;4.43;;;1.85;;
38843;SDS011;24596;48.080;8.362;2022-08-23T11:56:01;5.50;;;2.10;;
38843;SDS011;24596;48.080;8.362;2022-08-23T12:01:15;4.00;;;1.80;;
38843;SDS011;24596;48.080;8.362;2022-08-23T12:03:51;8.52;;;2.28;;
38843;SDS011;24596;48.080;8.362;2022-08-23T12:11:16;5.22;;;2.15;;
38843;SDS011;24596;48.080;8.362;2022-08-23T12:18:43;4.35;;;1.67;;
38843;SDS011;24596;48.080;8.362;2022-08-23T12:21:15;7.50;;;1.77;;
38843;SDS011;24596;48.080;8.362;2022-08-23T12:23:43;5.20;;;1.90;;
38843;SDS011;24596;48.080;8.362;2022-08-23T12:26:11;6.60;;;1.88;;
38843;SDS011;24596;48.080;8.362;2022-08-23T12:28:45;4.53;;;1.80;;
38843;SDS011;24596;48.080;8.362;2022-08-23T12:36:09;4.30;;;1.73;;
38843;SDS011;24596;48.080;8.362;2022-08-23T12:44:19;5.03;;;1.60;;
38843;SDS011;24596;48.080;8.362;2022-08-23T12:46:46;6.07;;;1.90;;
38843;SDS011;24596;48.080;8.362;2022-08-23T12:49:30;6.97;;;1.73;;
38843;SDS011;24596;48.080;8.362;2022-08-23T12:51:57;5.70;;;1.50;;
38843;SDS011;24596;48.080;8.362;2022-08-23T12:54:30;4.70;;;1.60;;
38843;SDS011;24596;48.080;8.362;2022-08-23T12:56:56;3.50;;;1.70;;
38843;SDS011;24596;48.080;8.362;2022-08-23T12:59:41;5.15;;;1.52;;
38843;SDS011;24596;48.080;8.362;2022-08-23T13:02:13;4.35;;;1.75;;
38843;SDS011;24596;48.080;8.362;2022-08-23T13:04:41;5.78;;;1.75;;
38843;SDS011;24596;48.080;8.362;2022-08-23T13:07:09;5.50;;;1.73;;
38843;SDS011;24596;48.080;8.362;2022-08-23T13:09:37;4.38;;;1.80;;
38843;SDS011;24596;48.080;8.362;2022-08-23T13:12:04;5.60;;;1.70;;
38843;SDS011;24596;48.080;8.362;2022-08-23T13:16:55;4.10;;;1.48;;
38843;SDS011;24596;48.080;8.362;2022-08-23T13:19:27;4.00;;;1.50;;
38843;SDS011;24596;48.080;8.362;2022-08-23T13:22:09;3.35;;;1.73;;
38843;SDS011;24596;48.080;8.362;2022-08-23T13:37:45;3.35;;;1.50;;
38843;SDS011;24596;48.080;8.362;2022-08-23T13:40:13;4.20;;;1.35;;
38843;SDS011;24596;48.080;8.362;2022-08-23T13:42:42;8.05;;;1.83;;
38843;SDS011;24596;48.080;8.362;2022-08-23T13:45:47;5.25;;;1.40;;
38843;SDS011;24596;48.080;8.362;2022-08-23T13:50:31;3.53;;;1.33;;
38843;SDS011;24596;48.080;8.362;2022-08-23T13:52:57;4.38;;;1.60;;
38843;SDS011;24596;48.080;8.362;2022-08-23T13:55:23;5.00;;;1.80;;
38843;SDS011;24596;48.080;8.362;2022-08-23T13:57:49;6.63;;;1.58;;
38843;SDS011;24596;48.080;8.362;2022-08-23T14:00:14;5.63;;;1.60;;
38843;SDS011;24596;48.080;8.362;2022-08-23T14:02:40;5.07;;;1.60;;
38843;SDS011;24596;48.080;8.362;2022-08-23T14:05:05;4.75;;;1.58;;
38843;SDS011;24596;48.080;8.362;2022-08-23T14:07:32;6.10;;;2.08;;
38843;SDS011;24596;48.080;8.362;2022-08-23T14:09:57;3.60;;;1.40;;
38843;SDS011;24596;48.080;8.362;2022-08-23T14:12:29;3.78;;;1.70;;
38843;SDS011;24596;48.080;8.362;2022-08-23T14:14:56;5.07;;;1.63;;
38843;SDS011;24596;48.080;8.362;2022-08-23T14:17:22;4.90;;;1.88;;
38843;SDS011;24596;48.080;8.362;2022-08-23T14:19:47;4.22;;;2.00;;
38843;SDS011;24596;48.080;8.362;2022-08-23T14:22:13;4.90;;;1.58;;
38843;SDS011;24596;48.080;8.362;2022-08-23T14:24:39;4.60;;;1.60;;
38843;SDS011;24596;48.080;8.362;2022-08-23T14:27:04;3.85;;;1.77;;
38843;SDS011;24596;48.080;8.362;2022-08-23T14:29:29;4.97;;;1.65;;
38843;SDS011;24596;48.080;8.362;2022-08-23T14:31:56;4.65;;;1.40;;
38843;SDS011;24596;48.080;8.362;2022-08-23T14:34:21;3.80;;;1.52;;
38843;SDS011;24596;48.080;8.362;2022-08-23T14:36:47;4.07;;;1.63;;
38843;SDS011;24596;48.080;8.362;2022-08-23T14:39:13;3.95;;;1.75;;
38843;SDS011;24596;48.080;8.362;2022-08-23T14:41:38;5.93;;;1.80;;
38843;SDS011;24596;48.080;8.362;2022-08-23T14:44:03;5.18;;;1.50;;
38843;SDS011;24596;48.080;8.362;2022-08-23T14:46:29;4.97;;;1.83;;
38843;SDS011;24596;48.080;8.362;2022-08-23T14:48:54;3.83;;;1.42;;
38843;SDS011;24596;48.080;8.362;2022-08-23T14:51:33;6.28;;;1.70;;
38843;SDS011;24596;48.080;8.362;2022-08-23T14:53:59;4.13;;;1.50;;
38843;SDS011;24596;48.080;8.362;2022-08-23T14:56:25;3.35;;;1.67;;
38843;SDS011;24596;48.080;8.362;2022-08-23T14:58:51;4.07;;;1.85;;
38843;SDS011;24596;48.080;8.362;2022-08-23T15:01:16;3.25;;;1.50;;
38843;SDS011;24596;48.080;8.362;2022-08-23T15:03:42;2.92;;;1.35;;
38843;SDS011;24596;48.080;8.362;2022-08-23T15:06:08;4.97;;;1.52;;
38843;SDS011;24596;48.080;8.362;2022-08-23T15:08:34;4.03;;;1.75;;
38843;SDS011;24596;48.080;8.362;2022-08-23T15:10:59;5.07;;;1.85;;
38843;SDS011;24596;48.080;8.362;2022-08-23T15:13:24;4.85;;;1.67;;
38843;SDS011;24596;48.080;8.362;2022-08-23T15:15:50;4.75;;;1.73;;
38843;SDS011;24596;48.080;8.362;2022-08-23T15:18:15;5.95;;;1.60;;
38843;SDS011;24596;48.080;8.362;2022-08-23T15:20:41;3.75;;;1.70;;
38843;SDS011;24596;48.080;8.362;2022-08-23T15:23:07;7.72;;;1.70;;
38843;SDS011;24596;48.080;8.362;2022-08-23T15:25:33;3.88;;;1.50;;
38843;SDS011;24596;48.080;8.362;2022-08-23T15:27:59;3.65;;;1.58;;
38843;SDS011;24596;48.080;8.362;2022-08-23T15:30:28;6.70;;;1.60;;
38843;SDS011;24596;48.080;8.362;2022-08-23T15:32:53;4.50;;;1.70;;
38843;SDS011;24596;48.080;8.362;2022-08-23T15:35:19;3.92;;;1.30;;
38843;SDS011;24596;48.080;8.362;2022-08-23T15:37:44;4.90;;;1.77;;
38843;SDS011;24596;48.080;8.362;2022-08-23T15:40:10;4.57;;;1.50;;
38843;SDS011;24596;48.080;8.362;2022-08-23T15:42:35;4.95;;;1.52;;
38843;SDS011;24596;48.080;8.362;2022-08-23T15:45:01;4.70;;;1.92;;
38843;SDS011;24596;48.080;8.362;2022-08-23T15:47:33;2.97;;;1.30;;
38843;SDS011;24596;48.080;8.362;2022-08-23T15:50:01;6.00;;;1.70;;
38843;SDS011;24596;48.080;8.362;2022-08-23T15:52:28;5.30;;;1.70;;
38843;SDS011;24596;48.080;8.362;2022-08-23T15:54:53;5.70;;;1.57;;
38843;SDS011;24596;48.080;8.362;2022-08-23T15:57:23;5.65;;;1.52;;
38843;SDS011;24596;48.080;8.362;2022-08-23T15:59:49;6.30;;;1.63;;
38843;SDS011;24596;48.080;8.362;2022-08-23T16:02:15;3.63;;;1.23;;
38843;SDS011;24596;48.080;8.362;2022-08-23T16:04:40;6.10;;;1.67;;
38843;SDS011;24596;48.080;8.362;2022-08-23T16:07:06;4.57;;;1.70;;
38843;SDS011;24596;48.080;8.362;2022-08-23T16:09:32;3.30;;;1.45;;
38843;SDS011;24596;48.080;8.362;2022-08-23T16:11:58;4.78;;;1.52;;
38843;SDS011;24596;48.080;8.362;2022-08-23T16:14:23;4.82;;;1.75;;
38843;SDS011;24596;48.080;8.362;2022-08-23T16:16:48;5.47;;;1.23;;
38843;SDS011;24596;48.080;8.362;2022-08-23T16:19:14;4.47;;;1.45;;
38843;SDS011;24596;48.080;8.362;2022-08-23T16:21:39;5.15;;;1.70;;
38843;SDS011;24596;48.080;8.362;2022-08-23T16:24:04;3.67;;;1.60;;
38843;SDS011;24596;48.080;8.362;2022-08-23T16:26:31;6.97;;;1.90;;
38843;SDS011;24596;48.080;8.362;2022-08-23T16:28:58;5.57;;;1.60;;
38843;SDS011;24596;48.080;8.362;2022-08-23T16:31:23;4.97;;;1.60;;
38843;SDS011;24596;48.080;8.362;2022-08-23T16:33:53;6.28;;;1.80;;